Time;durP1;ratioP1;P1;durP2;ratioP2;P2;SDS_P1;SDS_P2;PMS_P1;PMS_P2;Temp;Humidity;BMP_temperature;BMP_pressure;BME280_temperature;BME280_humidity;BME280_pressure;Samples;Min_cycle;Max_cycle;Signal;HPM_P1;HPM_P2
2023/06/05 00:00:43;;;;;;;;;;;10.60;74.10;;;;;;6186228;23;20311;-89
2023/06/05 00:03:09;;;;;;;;;;;10.70;74.00;;;;;;6185802;23;19916;-90
2023/06/05 00:05:36;;;;;;;;;;;10.70;74.00;;;;;;6185260;23;19916;-89
2023/06/05 00:08:01;;;;;;;;;;;10.70;74.00;;;;;;6160430;23;19943;-89
2023/06/05 00:10:27;;;;;;;;;;;10.70;74.00;;;;;;6185165;23;19916;-89
2023/06/05 00:12:53;;;;;;;;;;;10.70;74.20;;;;;;6160246;23;19916;-89
2023/06/05 00:15:19;;;;;;;;;;;10.80;74.20;;;;;;6160458;23;19916;-90
2023/06/05 00:17:45;;;;;;;;;;;10.80;74.00;;;;;;6159552;23;20393;-89
2023/06/05 00:20:11;;;;;;;;;;;10.80;74.10;;;;;;6160600;23;19916;-89
2023/06/05 00:22:37;;;;;;;;;;;10.80;74.20;;;;;;6160398;23;19916;-89
2023/06/05 00:25:03;;;;;;;;;;;10.80;74.20;;;;;;6160588;23;19923;-89
2023/06/05 00:27:30;;;;;;;;;;;10.80;74.10;;;;;;6158941;23;19923;-89
2023/06/05 00:29:55;;;;;;;;;;;10.90;74.10;;;;;;6160266;23;19955;-91
2023/06/05 00:32:21;;;;;;;;;;;10.90;74.20;;;;;;6160489;23;19916;-88
2023/06/05 00:34:49;;;;;;;;;;;10.90;74.10;;;;;;6160781;23;19916;-90
2023/06/05 00:37:15;;;;;;;;;;;10.90;74.20;;;;;;6162107;23;19916;-89
2023/06/05 00:39:41;;;;;;;;;;;10.90;74.30;;;;;;6160806;23;19916;-89
2023/06/05 00:42:08;;;;;;;;;;;10.90;74.10;;;;;;6160891;23;19962;-90
2023/06/05 00:44:35;;;;;;;;;;;10.90;74.10;;;;;;6185927;23;19939;-89
2023/06/05 00:47:01;;;;;;;;;;;10.90;74.10;;;;;;6160454;23;19916;-89
2023/06/05 00:49:26;;;;;;;;;;;10.90;73.60;;;;;;6161398;23;19920;-89
2023/06/05 00:51:52;;;;;;;;;;;10.90;73.50;;;;;;6160190;23;19916;-90
2023/06/05 00:54:18;;;;;;;;;;;10.90;73.50;;;;;;6160629;23;19916;-89
2023/06/05 00:56:44;;;;;;;;;;;10.90;73.20;;;;;;6159907;23;19927;-90
2023/06/05 00:59:10;;;;;;;;;;;10.90;73.20;;;;;;6160954;23;20386;-89
2023/06/05 01:01:36;;;;;;;;;;;10.90;73.00;;;;;;6161572;23;19920;-89
2023/06/05 01:04:02;;;;;;;;;;;10.90;73.10;;;;;;6186042;23;19916;-88
2023/06/05 01:06:28;;;;;;;;;;;10.90;73.00;;;;;;6161981;23;19912;-90
2023/06/05 01:08:56;;;;;;;;;;;10.90;73.10;;;;;;6162866;23;19939;-90
2023/06/05 01:11:37;;;;;;;;;;;10.90;73.00;;;;;;6163414;23;19924;-89
2023/06/05 01:14:12;;;;;;;;;;;10.90;73.00;;;;;;6187103;23;19962;-89
2023/06/05 01:16:39;;;;;;;;;;;10.90;72.90;;;;;;6162277;23;19912;-89
2023/06/05 01:19:06;;;;;;;;;;;10.90;72.90;;;;;;6163077;23;19971;-89
2023/06/05 01:21:32;;;;;;;;;;;10.90;72.80;;;;;;6162304;23;19923;-89
2023/06/05 01:23:58;;;;;;;;;;;10.90;72.80;;;;;;6187093;23;19916;-90
2023/06/05 01:26:37;;;;;;;;;;;10.90;73.00;;;;;;6162446;23;19922;-91
2023/06/05 01:29:06;;;;;;;;;;;10.80;73.00;;;;;;6162117;23;19967;-89
2023/06/05 01:31:36;;;;;;;;;;;10.80;72.90;;;;;;6162225;23;20378;-90
2023/06/05 01:34:05;;;;;;;;;;;10.80;72.80;;;;;;6162213;23;19991;-89
2023/06/05 01:36:31;;;;;;;;;;;10.80;72.70;;;;;;6160852;23;19912;-88
2023/06/05 01:38:58;;;;;;;;;;;10.80;72.80;;;;;;6162079;23;19916;-88
2023/06/05 01:41:26;;;;;;;;;;;10.80;72.80;;;;;;6161602;23;20331;-89
2023/06/05 01:43:53;;;;;;;;;;;10.80;72.90;;;;;;6162261;23;19916;-90
2023/06/05 01:46:20;;;;;;;;;;;10.80;73.00;;;;;;6161385;23;19917;-91
2023/06/05 01:48:46;;;;;;;;;;;10.80;73.00;;;;;;6161583;23;19920;-90
2023/06/05 01:51:12;;;;;;;;;;;10.80;73.00;;;;;;6161623;23;19923;-89
2023/06/05 01:53:38;;;;;;;;;;;10.80;73.10;;;;;;6161704;23;19991;-89
2023/06/05 01:56:06;;;;;;;;;;;10.80;73.10;;;;;;6161685;23;20319;-89
2023/06/05 01:58:32;;;;;;;;;;;10.80;73.00;;;;;;6161576;23;19938;-88
2023/06/05 02:00:58;;;;;;;;;;;10.80;73.20;;;;;;6162122;23;20335;-89
2023/06/05 02:03:24;;;;;;;;;;;10.80;73.10;;;;;;6161657;23;19923;-91
2023/06/05 02:05:51;;;;;;;;;;;10.80;73.00;;;;;;6186667;23;19916;-90
2023/06/05 02:08:19;;;;;;;;;;;10.80;73.00;;;;;;6161963;23;19916;-89
2023/06/05 02:10:48;;;;;;;;;;;10.80;73.00;;;;;;6161921;23;20316;-89
2023/06/05 02:13:19;;;;;;;;;;;10.80;73.10;;;;;;6161701;23;19923;-89
2023/06/05 02:15:45;;;;;;;;;;;10.80;73.20;;;;;;6161639;23;20371;-90
2023/06/05 02:18:12;;;;;;;;;;;10.80;73.20;;;;;;6186550;23;19916;-88
2023/06/05 02:20:40;;;;;;;;;;;10.80;73.00;;;;;;6162018;23;20319;-88
2023/06/05 02:23:06;;;;;;;;;;;10.80;73.10;;;;;;6161873;23;19924;-88
2023/06/05 02:25:32;;;;;;;;;;;10.80;73.00;;;;;;6161972;23;20355;-89
2023/06/05 02:27:57;;;;;;;;;;;10.80;73.00;;;;;;6186302;23;19916;-89
2023/06/05 02:30:23;;;;;;;;;;;10.80;73.00;;;;;;6161251;23;19995;-89
2023/06/05 02:32:56;;;;;;;;;;;10.70;73.00;;;;;;6186095;23;19956;-88
2023/06/05 02:35:22;;;;;;;;;;;10.80;73.00;;;;;;6161758;23;20000;-88
2023/06/05 02:37:48;;;;;;;;;;;10.80;73.00;;;;;;6160506;23;19916;-88
2023/06/05 02:40:14;;;;;;;;;;;10.80;72.90;;;;;;6160892;23;19916;-89
2023/06/05 02:42:40;;;;;;;;;;;10.80;73.00;;;;;;6162183;23;19923;-88
2023/06/05 02:45:07;;;;;;;;;;;10.70;73.00;;;;;;6161222;23;19998;-87
2023/06/05 02:47:33;;;;;;;;;;;10.80;73.00;;;;;;6160679;23;19986;-88
2023/06/05 02:49:58;;;;;;;;;;;10.70;72.90;;;;;;6161245;23;20358;-88
2023/06/05 02:52:26;;;;;;;;;;;10.80;73.00;;;;;;6161360;23;19962;-89
2023/06/05 02:54:52;;;;;;;;;;;10.70;73.00;;;;;;6161260;23;19923;-89
2023/06/05 02:57:26;;;;;;;;;;;10.80;72.70;;;;;;6185258;23;19916;-90
2023/06/05 02:59:52;;;;;;;;;;;10.80;72.60;;;;;;6161564;23;19923;-89
2023/06/05 03:02:19;;;;;;;;;;;10.80;72.70;;;;;;6161199;23;19986;-89
2023/06/05 03:04:48;;;;;;;;;;;10.80;72.60;;;;;;6160851;23;19916;-89
2023/06/05 03:07:19;;;;;;;;;;;10.80;72.60;;;;;;6186575;23;19928;-89
2023/06/05 03:09:45;;;;;;;;;;;10.90;72.50;;;;;;6161847;23;19916;-88
2023/06/05 03:12:10;;;;;;;;;;;10.90;72.60;;;;;;6161226;23;19965;-88
2023/06/05 03:14:36;;;;;;;;;;;10.90;72.50;;;;;;6161592;23;19943;-88
2023/06/05 03:17:03;;;;;;;;;;;10.90;72.60;;;;;;6185097;23;19920;-88
2023/06/05 03:19:29;;;;;;;;;;;10.90;72.60;;;;;;6161779;23;19920;-87
2023/06/05 03:21:55;;;;;;;;;;;10.90;72.70;;;;;;6160951;23;20421;-88
2023/06/05 03:24:24;;;;;;;;;;;10.80;72.70;;;;;;6160833;23;19967;-88
2023/06/05 03:26:50;;;;;;;;;;;10.80;72.60;;;;;;6160100;23;19922;-88
2023/06/05 03:29:16;;;;;;;;;;;10.80;72.40;;;;;;6161286;23;19987;-88
2023/06/05 03:31:42;;;;;;;;;;;10.80;72.30;;;;;;6161976;23;19916;-88
2023/06/05 03:34:08;;;;;;;;;;;10.90;72.30;;;;;;6161147;23;19962;-89
2023/06/05 03:36:34;;;;;;;;;;;10.90;72.20;;;;;;6159783;23;19914;-89
2023/06/05 03:39:00;;;;;;;;;;;10.90;72.30;;;;;;6160677;23;20224;-88
2023/06/05 03:41:26;;;;;;;;;;;10.90;72.20;;;;;;6160691;23;19927;-88
2023/06/05 03:43:54;;;;;;;;;;;10.90;72.30;;;;;;6161203;23;19932;-88
2023/06/05 03:46:23;;;;;;;;;;;10.90;72.30;;;;;;6161142;23;19916;-89
2023/06/05 03:48:55;;;;;;;;;;;10.90;72.50;;;;;;6160641;23;19964;-89
2023/06/05 03:51:21;;;;;;;;;;;10.90;72.60;;;;;;6160587;23;20000;-88
2023/06/05 03:54:08;;;;;;;;;;;10.90;72.50;;;;;;6160652;23;19982;-88
2023/06/05 03:56:43;;;;;;;;;;;10.90;72.50;;;;;;6160969;23;20292;-90
2023/06/05 03:59:09;;;;;;;;;;;10.90;72.70;;;;;;6161606;23;20035;-88
2023/06/05 04:01:37;;;;;;;;;;;10.90;72.80;;;;;;6160746;23;19917;-88
2023/06/05 04:04:05;;;;;;;;;;;10.90;72.80;;;;;;6160724;23;19923;-89
2023/06/05 04:06:36;;;;;;;;;;;10.90;72.80;;;;;;6161460;23;20299;-90
2023/06/05 04:09:12;;;;;;;;;;;11.00;72.80;;;;;;6161126;23;19922;-89
2023/06/05 04:11:38;;;;;;;;;;;10.90;72.90;;;;;;6184949;23;19920;-88
2023/06/05 04:14:04;;;;;;;;;;;11.00;72.80;;;;;;6160983;23;19923;-88
2023/06/05 04:16:30;;;;;;;;;;;11.00;72.70;;;;;;6160819;23;19912;-91
2023/06/05 04:18:56;;;;;;;;;;;11.00;72.70;;;;;;6160638;23;19924;-89
2023/06/05 04:21:22;;;;;;;;;;;11.00;72.70;;;;;;6161020;23;19916;-90
2023/06/05 04:23:47;;;;;;;;;;;11.00;72.70;;;;;;6160890;23;19916;-91
2023/06/05 04:26:17;;;;;;;;;;;11.00;72.70;;;;;;6160790;23;20374;-90
2023/06/05 04:28:43;;;;;;;;;;;11.00;72.70;;;;;;6160130;23;19916;-89
2023/06/05 04:31:09;;;;;;;;;;;11.00;72.60;;;;;;6160776;23;19919;-88
2023/06/05 04:33:35;;;;;;;;;;;11.00;72.60;;;;;;6160789;23;19924;-89
2023/06/05 04:36:01;;;;;;;;;;;11.00;72.50;;;;;;6160177;23;20350;-90
2023/06/05 04:38:27;;;;;;;;;;;11.10;72.80;;;;;;6159948;23;19970;-91
2023/06/05 04:40:53;;;;;;;;;;;11.10;72.70;;;;;;6160331;23;19927;-90
2023/06/05 04:43:19;;;;;;;;;;;11.10;72.70;;;;;;6160815;23;19916;-89
2023/06/05 04:45:47;;;;;;;;;;;11.10;72.60;;;;;;6160172;23;19916;-90
2023/06/05 04:48:13;;;;;;;;;;;11.10;72.00;;;;;;6160126;23;19920;-89
2023/06/05 04:50:42;;;;;;;;;;;11.10;71.80;;;;;;6160677;23;20361;-90
2023/06/05 04:53:07;;;;;;;;;;;11.10;71.40;;;;;;6160263;23;19923;-89
2023/06/05 04:55:33;;;;;;;;;;;11.10;71.20;;;;;;6161270;23;19916;-89
2023/06/05 04:58:00;;;;;;;;;;;11.10;71.60;;;;;;6159657;23;19981;-89
2023/06/05 05:00:27;;;;;;;;;;;11.10;71.50;;;;;;6160279;23;20042;-90
2023/06/05 05:02:56;;;;;;;;;;;11.10;71.50;;;;;;6161086;23;19916;-90
2023/06/05 05:05:22;;;;;;;;;;;11.10;71.30;;;;;;6159867;23;19920;-91
2023/06/05 05:07:50;;;;;;;;;;;11.20;71.10;;;;;;6184090;23;19917;-90
2023/06/05 05:10:18;;;;;;;;;;;11.20;71.10;;;;;;6160503;23;19927;-91
2023/06/05 05:12:47;;;;;;;;;;;11.30;71.10;;;;;;6161215;23;19958;-89
2023/06/05 05:15:16;;;;;;;;;;;11.30;71.00;;;;;;6185745;23;19966;-89
2023/06/05 05:17:41;;;;;;;;;;;11.30;70.70;;;;;;6159923;23;20280;-90
2023/06/05 05:20:21;;;;;;;;;;;11.30;70.60;;;;;;6160319;23;19916;-90
2023/06/05 05:22:47;;;;;;;;;;;11.30;70.60;;;;;;6161167;23;19922;-89
2023/06/05 05:25:13;;;;;;;;;;;11.40;70.80;;;;;;6161228;23;19955;-90
2023/06/05 05:27:41;;;;;;;;;;;11.40;70.50;;;;;;6160105;23;19916;-91
2023/06/05 05:33:29;;;;;;;;;;;11.40;70.40;;;;;;6186437;23;19992;-89
2023/06/05 05:35:57;;;;;;;;;;;11.50;70.10;;;;;;6159991;23;20354;-90
2023/06/05 05:38:23;;;;;;;;;;;11.50;70.40;;;;;;6159024;23;19926;-90
2023/06/05 05:40:54;;;;;;;;;;;11.50;70.30;;;;;;6161223;23;19948;-91
2023/06/05 05:43:20;;;;;;;;;;;11.50;70.30;;;;;;6158194;23;19939;-89
2023/06/05 05:45:49;;;;;;;;;;;11.60;70.40;;;;;;6160981;23;19922;-89
2023/06/05 05:48:15;;;;;;;;;;;11.70;70.20;;;;;;6157421;23;19987;-89
2023/06/05 05:50:43;;;;;;;;;;;11.70;70.30;;;;;;6185318;23;20357;-91
2023/06/05 05:53:11;;;;;;;;;;;11.70;70.40;;;;;;6160301;23;19923;-89
2023/06/05 05:55:38;;;;;;;;;;;11.80;70.70;;;;;;6161687;23;20327;-89
2023/06/05 05:58:04;;;;;;;;;;;11.90;70.50;;;;;;6149626;23;19987;-89
2023/06/05 06:00:30;;;;;;;;;;;11.90;70.30;;;;;;6162083;23;19923;-90
2023/06/05 06:02:55;;;;;;;;;;;11.90;70.20;;;;;;6160726;23;19920;-91
2023/06/05 06:05:21;;;;;;;;;;;12.00;70.40;;;;;;6186115;23;19930;-90
2023/06/05 06:07:47;;;;;;;;;;;12.00;70.20;;;;;;6159215;23;19916;-89
2023/06/05 06:10:26;;;;;;;;;;;12.10;70.40;;;;;;6162944;23;19916;-90
2023/06/05 06:12:57;;;;;;;;;;;12.10;69.90;;;;;;6150517;23;20303;-91
2023/06/05 06:15:27;;;;;;;;;;;12.10;70.30;;;;;;6161731;23;19920;-90
2023/06/05 06:17:55;;;;;;;;;;;12.10;70.10;;;;;;6149575;23;20227;-90
2023/06/05 06:20:22;;;;;;;;;;;12.10;70.50;;;;;;6162932;23;19916;-89
2023/06/05 06:22:50;;;;;;;;;;;12.10;70.00;;;;;;6160670;23;19938;-89
2023/06/05 06:25:25;;;;;;;;;;;12.20;70.00;;;;;;6163938;23;19931;-88
2023/06/05 06:27:53;;;;;;;;;;;12.20;70.30;;;;;;6159376;23;19963;-89
2023/06/05 06:30:28;;;;;;;;;;;12.30;70.50;;;;;;6163095;23;19924;-89
2023/06/05 06:33:09;;;;;;;;;;;12.50;69.50;;;;;;6185249;23;19994;-89
2023/06/05 06:35:36;;;;;;;;;;;12.50;69.20;;;;;;6162249;23;20310;-88
2023/06/05 06:38:02;;;;;;;;;;;12.40;69.50;;;;;;6161073;23;20215;-88
2023/06/05 06:40:31;;;;;;;;;;;12.40;69.50;;;;;;6162338;23;19923;-89
2023/06/05 06:42:57;;;;;;;;;;;12.50;69.40;;;;;;6148822;23;20255;-88
2023/06/05 06:45:23;;;;;;;;;;;12.50;69.40;;;;;;6161612;23;19920;-89
2023/06/05 06:47:48;;;;;;;;;;;12.50;69.70;;;;;;6183915;23;19916;-88
2023/06/05 06:50:14;;;;;;;;;;;12.50;69.40;;;;;;6161860;23;19916;-89
2023/06/05 06:52:40;;;;;;;;;;;12.60;69.50;;;;;;6160125;23;19916;-88
2023/06/05 06:55:37;;;;;;;;;;;12.70;69.50;;;;;;6162702;23;19931;-90
2023/06/05 06:58:24;;;;;;;;;;;12.80;68.70;;;;;;6159225;23;19916;-89
2023/06/05 07:01:20;;;;;;;;;;;;;;;;;;;;;
2023/06/05 07:04:43;;;;;;;;;;;12.80;68.80;;;;;;6180223;23;19982;-90
2023/06/05 07:07:21;;;;;;;;;;;12.90;68.70;;;;;;6160360;23;19916;-91
2023/06/05 07:10:02;;;;;;;;;;;13.00;69.00;;;;;;6167805;23;19955;-89
2023/06/05 08:08:38;;;;;;;;;;;13.90;67.00;;;;;;6206375;23;19936;-89
2023/06/05 08:11:23;;;;;;;;;;;14.00;66.80;;;;;;6213851;23;19926;-88
2023/06/05 08:13:51;;;;;;;;;;;14.00;66.20;;;;;;6186432;23;19924;-88
2023/06/05 08:16:17;;;;;;;;;;;14.10;66.50;;;;;;6160933;23;19919;-89
2023/06/05 08:19:18;;;;;;;;;;;14.10;66.10;;;;;;6181792;23;19950;-90
2023/06/05 08:21:57;;;;;;;;;;;14.20;66.60;;;;;;6162089;23;19994;-92
2023/06/05 08:24:36;;;;;;;;;;;14.30;66.80;;;;;;6107397;23;19920;-93
2023/06/05 08:27:40;;;;;;;;;;;14.30;65.70;;;;;;6184369;23;19938;-92
2023/06/05 08:30:09;;;;;;;;;;;14.30;66.40;;;;;;6187622;23;19935;-90
2023/06/05 08:32:47;;;;;;;;;;;14.30;67.20;;;;;;6167396;23;19943;-90
2023/06/05 08:38:42;;;;;;;;;;;14.50;66.20;;;;;;6156130;23;20220;-89
2023/06/05 08:41:38;;;;;;;;;;;;;;;;;;;;;
2023/06/05 08:44:29;;;;;;;;;;;14.70;67.30;;;;;;6211903;23;20349;-92
2023/06/05 08:47:08;;;;;;;;;;;15.00;66.90;;;;;;6181990;23;19947;-91
2023/06/05 08:49:55;;;;;;;;;;;15.00;65.30;;;;;;6148962;23;19915;-90
2023/06/05 08:52:22;;;;;;;;;;;15.00;66.40;;;;;;6185368;23;19915;-90
2023/06/05 08:54:57;;;;;;;;;;;15.00;66.10;;;;;;6188064;23;19942;-93
2023/06/05 08:57:23;;;;;;;;;;;15.00;65.90;;;;;;6167923;23;19923;-89
2023/06/05 08:59:57;;;;;;;;;;;14.90;66.40;;;;;;6187825;23;20341;-91
2023/06/05 09:02:57;;;;;;;;;;;14.90;66.30;;;;;;6189415;23;19924;-92
2023/06/05 09:05:31;;;;;;;;;;;14.90;66.50;;;;;;6139314;23;19924;-91
2023/06/05 09:08:00;;;;;;;;;;;14.80;66.40;;;;;;6154661;23;19923;-90
2023/06/05 09:10:27;;;;;;;;;;;14.80;65.90;;;;;;6180400;23;19915;-88
2023/06/05 09:12:57;;;;;;;;;;;14.70;66.40;;;;;;6177786;23;20322;-90
2023/06/05 09:15:26;;;;;;;;;;;14.80;66.40;;;;;;6192826;23;19920;-87
2023/06/05 09:18:07;;;;;;;;;;;14.80;66.10;;;;;;6142521;23;19916;-89
2023/06/05 09:20:34;;;;;;;;;;;14.80;67.50;;;;;;6182506;23;19986;-91
2023/06/05 09:23:30;;;;;;;;;;;14.90;65.50;;;;;;6165607;23;20412;-91
2023/06/05 09:29:29;;;;;;;;;;;14.80;65.90;;;;;;6094044;23;19955;-91
2023/06/05 09:35:20;;;;;;;;;;;14.90;65.90;;;;;;6155778;23;19949;-90
2023/06/05 09:37:46;;;;;;;;;;;14.90;65.60;;;;;;6184343;23;19986;-89
2023/06/05 09:40:38;;;;;;;;;;;14.90;66.90;;;;;;6195186;23;20301;-94
2023/06/05 09:43:34;;;;;;;;;;;14.90;66.30;;;;;;6221072;23;19915;-90
2023/06/05 09:46:36;;;;;;;;;;;15.00;65.90;;;;;;6194548;23;19946;-91
2023/06/05 09:49:09;;;;;;;;;;;15.00;66.40;;;;;;6154068;23;19923;-91
2023/06/05 09:51:45;;;;;;;;;;;15.00;66.20;;;;;;6185602;23;19920;-91
2023/06/05 09:54:11;;;;;;;;;;;15.20;66.70;;;;;;6176544;23;20458;-87
2023/06/05 09:56:38;;;;;;;;;;;15.30;65.60;;;;;;6190595;23;19997;-88
2023/06/05 09:59:07;;;;;;;;;;;15.30;65.40;;;;;;6127025;23;19916;-91
2023/06/05 10:01:35;;;;;;;;;;;15.20;65.90;;;;;;6195379;23;19915;-89
2023/06/05 10:04:09;;;;;;;;;;;15.10;65.60;;;;;;6192008;23;19915;-88
2023/06/05 10:06:50;;;;;;;;;;;15.20;65.50;;;;;;6190436;23;19995;-94
2023/06/05 10:09:26;;;;;;;;;;;15.10;65.20;;;;;;6185815;23;19919;-91
2023/06/05 10:12:08;;;;;;;;;;;;;;;;;;;;;
2023/06/05 10:14:35;;;;;;;;;;;15.00;65.60;;;;;;6213281;23;20280;-88
2023/06/05 10:17:38;;;;;;;;;;;15.00;65.40;;;;;;6158783;23;20010;-92
2023/06/05 10:20:16;;;;;;;;;;;15.00;65.10;;;;;;6103505;23;19916;-92
2023/06/05 10:23:02;;;;;;;;;;;;;;;;;;;;;
2023/06/05 10:25:47;;;;;;;;;;;15.10;64.90;;;;;;6124060;23;20684;-88
2023/06/05 10:28:32;;;;;;;;;;;15.10;65.50;;;;;;6103805;23;19923;-91
2023/06/05 10:31:00;;;;;;;;;;;15.20;65.90;;;;;;6189822;23;19916;-90
2023/06/05 10:33:26;;;;;;;;;;;15.30;65.80;;;;;;6203676;23;19916;-89
2023/06/05 10:36:16;;;;;;;;;;;15.40;65.70;;;;;;6188821;23;19922;-88
2023/06/05 10:38:44;;;;;;;;;;;15.40;66.40;;;;;;6183998;23;19915;-90
2023/06/05 10:41:11;;;;;;;;;;;15.50;65.80;;;;;;6188111;23;19986;-88
2023/06/05 10:43:47;;;;;;;;;;;15.50;65.90;;;;;;6162831;23;19916;-87
2023/06/05 10:49:34;;;;;;;;;;;15.50;65.40;;;;;;6189845;23;19914;-89
2023/06/05 10:55:59;;;;;;;;;;;;;;;;;;;;;
2023/06/05 10:58:31;;;;;;;;;;;15.50;64.60;;;;;;6123270;23;19940;-90
2023/06/05 11:04:46;;;;;;;;;;;15.50;65.80;;;;;;6096345;23;19921;-95
2023/06/05 11:10:32;;;;;;;;;;;15.40;64.40;;;;;;6044031;23;19918;-86
2023/06/05 11:13:01;;;;;;;;;;;15.50;65.20;;;;;;6099067;23;20614;-93
2023/06/05 11:15:30;;;;;;;;;;;15.50;65.30;;;;;;6127741;23;19919;-84
2023/06/05 11:17:56;;;;;;;;;;;15.60;65.20;;;;;;6176553;23;19916;-84
2023/06/05 11:20:28;;;;;;;;;;;15.60;64.50;;;;;;6213015;23;19924;-83
2023/06/05 11:22:54;;;;;;;;;;;15.60;64.60;;;;;;6186561;23;19915;-84
2023/06/05 11:25:30;;;;;;;;;;;15.60;65.30;;;;;;6213428;23;19920;-83
2023/06/05 11:27:58;;;;;;;;;;;15.60;65.40;;;;;;6203748;23;19915;-85
2023/06/05 11:30:28;;;;;;;;;;;15.60;65.60;;;;;;6213464;23;19963;-85
2023/06/05 11:32:58;;;;;;;;;;;15.70;65.60;;;;;;6186578;23;19923;-84
2023/06/05 11:35:29;;;;;;;;;;;15.70;65.50;;;;;;6187361;23;19923;-83
2023/06/05 11:38:07;;;;;;;;;;;15.80;65.40;;;;;;6177232;23;20331;-84
2023/06/05 11:40:33;;;;;;;;;;;15.80;64.80;;;;;;6212788;23;20022;-84
2023/06/05 11:43:03;;;;;;;;;;;15.70;65.30;;;;;;6211912;23;19971;-84
2023/06/05 11:45:29;;;;;;;;;;;15.70;64.90;;;;;;6164529;23;19922;-86
2023/06/05 11:48:05;;;;;;;;;;;15.60;65.40;;;;;;6203001;23;20510;-85
2023/06/05 11:50:31;;;;;;;;;;;15.70;65.10;;;;;;6187444;23;19916;-85
2023/06/05 11:53:06;;;;;;;;;;;15.80;65.30;;;;;;6211242;23;19939;-83
2023/06/05 11:56:17;;;;;;;;;;;15.80;64.80;;;;;;6215173;23;19916;-86
2023/06/05 11:58:22;;;;;;;;;;;15.70;64.80;;;;;;6189560;23;20269;-84
2023/06/05 12:00:47;;;;;;;;;;;15.80;65.00;;;;;;6214029;23;19966;-86
2023/06/05 12:03:18;;;;;;;;;;;15.80;64.90;;;;;;6211266;23;19919;-87
2023/06/05 12:05:43;;;;;;;;;;;15.90;64.90;;;;;;6187711;23;19922;-84
2023/06/05 12:08:25;;;;;;;;;;;16.00;64.70;;;;;;6179710;23;19916;-86
2023/06/05 12:10:51;;;;;;;;;;;16.00;65.00;;;;;;6187690;23;19916;-83
2023/06/05 12:13:17;;;;;;;;;;;16.00;64.60;;;;;;6185626;23;19919;-85
2023/06/05 12:15:42;;;;;;;;;;;16.00;65.20;;;;;;6211783;23;19999;-84
2023/06/05 12:18:08;;;;;;;;;;;16.00;64.70;;;;;;6203542;23;20027;-82
2023/06/05 12:20:40;;;;;;;;;;;16.00;64.50;;;;;;6187346;23;19993;-84
2023/06/05 12:23:06;;;;;;;;;;;16.00;64.50;;;;;;6186510;23;19924;-87
2023/06/05 12:25:32;;;;;;;;;;;16.00;65.10;;;;;;6212554;23;19915;-83
2023/06/05 12:27:59;;;;;;;;;;;16.00;64.40;;;;;;6152906;23;19915;-85
2023/06/05 12:30:24;;;;;;;;;;;16.00;65.00;;;;;;6187269;23;19954;-84
2023/06/05 12:32:51;;;;;;;;;;;16.00;64.70;;;;;;6210833;23;19915;-85
2023/06/05 12:35:20;;;;;;;;;;;16.10;64.20;;;;;;6187904;23;19995;-83
2023/06/05 12:37:47;;;;;;;;;;;16.10;64.60;;;;;;6201556;23;20023;-84
2023/06/05 12:40:13;;;;;;;;;;;16.10;64.30;;;;;;6211624;23;19959;-84
2023/06/05 12:42:40;;;;;;;;;;;16.10;64.00;;;;;;6210849;23;20034;-84
2023/06/05 12:45:07;;;;;;;;;;;16.10;64.50;;;;;;6211952;23;19915;-84
2023/06/05 12:47:36;;;;;;;;;;;16.10;65.00;;;;;;6200613;23;20022;-86
2023/06/05 12:50:07;;;;;;;;;;;16.00;64.50;;;;;;6187137;23;20245;-87
2023/06/05 12:52:33;;;;;;;;;;;16.00;64.80;;;;;;6210765;23;19955;-85
2023/06/05 12:54:59;;;;;;;;;;;16.00;65.00;;;;;;6187118;23;19916;-84
2023/06/05 12:57:25;;;;;;;;;;;16.00;64.60;;;;;;6200550;23;19916;-83
2023/06/05 12:59:55;;;;;;;;;;;15.90;64.70;;;;;;6188151;23;19923;-83
2023/06/05 13:02:21;;;;;;;;;;;15.90;65.10;;;;;;6187969;23;20323;-85
2023/06/05 13:04:46;;;;;;;;;;;15.80;65.00;;;;;;6188849;23;19922;-85
2023/06/05 13:07:12;;;;;;;;;;;15.80;64.60;;;;;;6179902;23;19994;-85
2023/06/05 13:09:38;;;;;;;;;;;15.80;65.10;;;;;;6212527;23;19916;-84
2023/06/05 13:12:04;;;;;;;;;;;15.80;64.60;;;;;;6212892;23;19916;-84
2023/06/05 13:14:30;;;;;;;;;;;15.80;65.10;;;;;;6213606;23;19923;-86
2023/06/05 13:16:56;;;;;;;;;;;15.90;64.70;;;;;;6206373;23;19912;-85
2023/06/05 13:19:22;;;;;;;;;;;15.90;64.50;;;;;;6187484;23;20001;-85
2023/06/05 13:21:48;;;;;;;;;;;16.00;65.30;;;;;;6189205;23;19916;-84
2023/06/05 13:24:13;;;;;;;;;;;16.00;65.00;;;;;;6212776;23;19915;-85
2023/06/05 13:26:41;;;;;;;;;;;16.10;64.90;;;;;;6183435;23;20255;-84
2023/06/05 13:29:08;;;;;;;;;;;16.10;64.20;;;;;;6184956;23;20331;-84
2023/06/05 13:31:33;;;;;;;;;;;16.00;64.20;;;;;;6213750;23;19959;-84
2023/06/05 13:33:59;;;;;;;;;;;16.00;64.40;;;;;;6187712;23;19922;-83
2023/06/05 13:36:26;;;;;;;;;;;16.00;64.30;;;;;;6181391;23;19920;-86
2023/06/05 13:38:52;;;;;;;;;;;16.00;64.80;;;;;;6209794;23;19916;-84
2023/06/05 13:41:18;;;;;;;;;;;16.00;64.40;;;;;;6213286;23;19927;-84
2023/06/05 13:43:43;;;;;;;;;;;16.10;64.40;;;;;;6187165;23;19916;-85
2023/06/05 13:46:09;;;;;;;;;;;16.00;64.60;;;;;;6210574;23;19916;-89
2023/06/05 13:48:35;;;;;;;;;;;16.10;64.80;;;;;;6205196;23;19919;-84
2023/06/05 13:51:01;;;;;;;;;;;16.00;64.30;;;;;;6188610;23;19916;-85
2023/06/05 13:53:27;;;;;;;;;;;15.90;64.70;;;;;;6187428;23;19931;-85
2023/06/05 13:55:52;;;;;;;;;;;15.90;64.50;;;;;;6189063;23;19923;-83
2023/06/05 13:58:18;;;;;;;;;;;15.80;64.00;;;;;;6174733;23;19942;-83
2023/06/05 14:00:44;;;;;;;;;;;15.80;64.60;;;;;;6188873;23;19970;-84
2023/06/05 14:03:10;;;;;;;;;;;15.80;64.70;;;;;;6211590;23;19916;-84
2023/06/05 14:05:36;;;;;;;;;;;15.80;64.20;;;;;;6188414;23;19966;-84
2023/06/05 14:08:01;;;;;;;;;;;15.80;64.50;;;;;;6204431;23;19919;-85
2023/06/05 14:10:27;;;;;;;;;;;15.80;64.60;;;;;;6187683;23;19954;-83
2023/06/05 14:12:53;;;;;;;;;;;15.90;64.70;;;;;;6162332;23;19916;-86
2023/06/05 14:15:20;;;;;;;;;;;15.90;64.10;;;;;;6212885;23;19943;-85
2023/06/05 14:17:46;;;;;;;;;;;16.00;64.70;;;;;;6179551;23;19916;-84
2023/06/05 14:20:13;;;;;;;;;;;16.00;64.40;;;;;;6213807;23;19919;-84
2023/06/05 14:22:39;;;;;;;;;;;16.00;64.60;;;;;;6187222;23;19943;-85
2023/06/05 14:25:06;;;;;;;;;;;16.00;63.90;;;;;;6188552;23;19920;-84
2023/06/05 14:27:31;;;;;;;;;;;15.80;64.10;;;;;;6204486;23;19927;-83
2023/06/05 14:29:57;;;;;;;;;;;15.80;64.20;;;;;;6213828;23;19915;-83
2023/06/05 14:32:22;;;;;;;;;;;15.70;64.60;;;;;;6186875;23;19923;-84
2023/06/05 14:34:48;;;;;;;;;;;15.80;64.80;;;;;;6213254;23;19916;-84
2023/06/05 14:37:14;;;;;;;;;;;15.80;64.30;;;;;;6180773;23;19951;-83
2023/06/05 14:39:39;;;;;;;;;;;15.80;64.30;;;;;;6187561;23;19916;-84
2023/06/05 14:42:05;;;;;;;;;;;15.80;64.60;;;;;;6212239;23;19920;-83
2023/06/05 14:44:31;;;;;;;;;;;15.80;64.60;;;;;;6213268;23;19970;-83
2023/06/05 14:46:57;;;;;;;;;;;15.80;64.60;;;;;;6205475;23;19919;-85
2023/06/05 14:49:26;;;;;;;;;;;15.80;64.60;;;;;;6186702;23;19920;-83
2023/06/05 14:51:52;;;;;;;;;;;16.00;64.50;;;;;;6187495;23;20054;-85
2023/06/05 14:54:17;;;;;;;;;;;16.00;64.10;;;;;;6211882;23;20346;-83
2023/06/05 14:56:43;;;;;;;;;;;16.00;63.70;;;;;;6182209;23;20506;-85
2023/06/05 14:59:09;;;;;;;;;;;15.80;64.40;;;;;;6210100;23;19962;-84
2023/06/05 15:01:36;;;;;;;;;;;16.00;64.30;;;;;;6213344;23;19924;-84
2023/06/05 15:04:02;;;;;;;;;;;16.00;64.10;;;;;;6211348;23;20393;-82
2023/06/05 15:06:27;;;;;;;;;;;16.10;64.20;;;;;;6208786;23;19920;-84
2023/06/05 15:08:53;;;;;;;;;;;16.10;63.60;;;;;;6208470;23;19943;-84
2023/06/05 15:11:20;;;;;;;;;;;16.00;63.90;;;;;;6212297;23;19916;-82
2023/06/05 15:13:46;;;;;;;;;;;16.10;63.70;;;;;;6187238;23;20293;-82
2023/06/05 15:16:11;;;;;;;;;;;16.10;63.60;;;;;;6186314;23;19919;-84
2023/06/05 15:18:37;;;;;;;;;;;16.20;64.00;;;;;;6205246;23;19986;-83
2023/06/05 15:21:02;;;;;;;;;;;16.20;64.00;;;;;;6187805;23;19919;-83
2023/06/05 15:23:28;;;;;;;;;;;16.30;63.70;;;;;;6186020;23;19973;-86
2023/06/05 15:25:54;;;;;;;;;;;16.20;63.90;;;;;;6213241;23;19990;-85
2023/06/05 15:28:20;;;;;;;;;;;16.10;63.90;;;;;;6203086;23;19919;-83
2023/06/05 15:30:47;;;;;;;;;;;16.10;64.00;;;;;;6212465;23;19928;-85
2023/06/05 15:33:14;;;;;;;;;;;16.10;64.00;;;;;;6210845;23;20398;-84
2023/06/05 15:35:42;;;;;;;;;;;16.10;64.40;;;;;;6163068;23;19963;-85
2023/06/05 15:38:10;;;;;;;;;;;16.20;64.30;;;;;;6205264;23;20323;-84
2023/06/05 15:40:36;;;;;;;;;;;16.20;64.00;;;;;;6212413;23;19927;-84
2023/06/05 15:43:05;;;;;;;;;;;16.20;64.10;;;;;;6211236;23;20253;-85
2023/06/05 15:45:32;;;;;;;;;;;16.20;64.30;;;;;;6213171;23;20279;-85
2023/06/05 15:47:58;;;;;;;;;;;16.20;64.40;;;;;;6179122;23;19970;-87
2023/06/05 15:50:23;;;;;;;;;;;16.20;64.20;;;;;;6212528;23;19916;-84
2023/06/05 15:52:49;;;;;;;;;;;16.20;64.30;;;;;;6186100;23;19916;-83
2023/06/05 15:55:15;;;;;;;;;;;16.20;64.20;;;;;;6186751;23;19920;-84
2023/06/05 15:57:40;;;;;;;;;;;16.20;64.10;;;;;;6174448;23;19920;-82